createdAt,value
2019-04-21T00:01:05.712Z,60.80
2019-04-21T00:03:38.422Z,61.10
2019-04-21T00:06:23.682Z,61.30
2019-04-21T00:09:00.860Z,61.40
2019-04-21T00:11:22.520Z,61.50
2019-04-21T00:13:51.488Z,61.80
2019-04-21T00:16:07.581Z,62.50
2019-04-21T00:18:48.464Z,62.20
2019-04-21T00:21:21.156Z,62.00
2019-04-21T00:23:56.047Z,62.50
2019-04-21T00:26:32.113Z,63.10
2019-04-21T00:29:03.674Z,62.80
2019-04-21T00:31:32.283Z,62.70
2019-04-21T00:33:46.084Z,63.10
2019-04-21T00:36:18.565Z,63.10
2019-04-21T00:39:15.551Z,63.30
2019-04-21T00:41:38.093Z,63.10
2019-04-21T00:43:59.856Z,63.90
2019-04-21T00:46:33.694Z,64.10
2019-04-21T00:49:02.070Z,63.80
2019-04-21T00:51:49.828Z,64.40
2019-04-21T00:54:27.498Z,64.50
2019-04-21T00:56:50.035Z,65.50
2019-04-21T00:59:19.362Z,64.80
2019-04-21T01:01:47.951Z,64.90
2019-04-21T01:04:16.818Z,64.50
2019-04-21T01:06:48.079Z,65.10
2019-04-21T01:09:13.596Z,64.90
2019-04-21T01:11:49.482Z,65.20
2019-04-21T01:14:32.766Z,65.10
2019-04-21T01:16:51.345Z,65.60
2019-04-21T01:19:16.661Z,65.50
2019-04-21T01:21:31.195Z,65.70
2019-04-21T01:24:07.832Z,66.10
2019-04-21T01:26:43.013Z,66.70
2019-04-21T01:29:15.533Z,67.20
2019-04-21T01:31:51.175Z,67.20
2019-04-21T01:34:20.583Z,67.40
2019-04-21T01:36:52.054Z,67.20
2019-04-21T01:39:27.479Z,67.20
2019-04-21T01:41:57.418Z,67.20
2019-04-21T01:44:29.893Z,66.60
2019-04-21T01:46:52.011Z,66.70
2019-04-21T01:49:19.212Z,66.50
2019-04-21T01:52:17.837Z,66.00
2019-04-21T01:55:04.905Z,66.20
2019-04-21T01:57:22.715Z,66.60
2019-04-21T01:59:54.268Z,66.60
2019-04-21T02:02:29.280Z,66.90
2019-04-21T02:05:03.443Z,67.10
2019-04-21T02:07:34.560Z,66.80
2019-04-21T02:10:05.168Z,66.70
2019-04-21T02:12:34.586Z,66.90
2019-04-21T02:15:06.326Z,66.90
2019-04-21T02:17:29.506Z,67.10
2019-04-21T02:19:56.390Z,67.10
2019-04-21T02:22:47.837Z,67.40
2019-04-21T02:25:08.335Z,67.30
2019-04-21T02:27:36.483Z,67.90
2019-04-21T02:30:14.213Z,67.70
2019-04-21T02:32:53.833Z,68.20
2019-04-21T02:35:30.222Z,68.40
2019-04-21T02:37:54.806Z,68.30
2019-04-21T02:40:25.571Z,68.70
2019-04-21T02:42:59.471Z,69.10
2019-04-21T02:47:53.438Z,68.40
2019-04-21T02:50:28.404Z,68.80
2019-04-21T02:57:59.579Z,70.50
2019-04-21T03:03:14.092Z,71.10
2019-04-21T03:05:58.767Z,71.50
2019-04-21T03:08:33.960Z,71.30
2019-04-21T03:10:59.255Z,71.30
2019-04-21T03:13:33.596Z,71.30
2019-04-21T03:18:32.726Z,71.00
2019-04-21T03:23:29.707Z,71.70
2019-04-21T03:28:49.510Z,72.30
2019-04-21T03:31:19.750Z,72.20
2019-04-21T03:36:37.168Z,72.50
2019-04-21T03:38:41.042Z,72.90
2019-04-21T03:41:04.628Z,73.10
2019-04-21T03:43:34.919Z,73.10
2019-04-21T03:46:02.130Z,73.30
2019-04-21T03:48:35.650Z,73.30
2019-04-21T03:51:04.783Z,73.90
2019-04-21T03:53:38.343Z,73.80
2019-04-21T03:56:04.118Z,73.80
2019-04-21T03:58:47.359Z,73.70
2019-04-21T04:01:32.873Z,73.60
2019-04-21T04:04:15.457Z,74.10
2019-04-21T04:06:34.031Z,73.90
2019-04-21T04:09:19.556Z,74.30
2019-04-21T04:11:58.387Z,74.80
2019-04-21T04:16:59.036Z,75.50
2019-04-21T04:19:26.407Z,75.40
2019-04-21T04:21:56.394Z,75.40
2019-04-21T04:24:24.405Z,75.20
2019-04-21T04:26:59.512Z,75.20
2019-04-21T04:29:20.381Z,75.60
2019-04-21T04:31:42.733Z,75.60
2019-04-21T04:34:21.834Z,76.50
2019-04-21T04:37:12.430Z,76.80
2019-04-21T04:42:12.763Z,76.60
2019-04-21T04:44:46.432Z,76.10
2019-04-21T04:47:12.192Z,76.10
2019-04-21T04:49:46.774Z,76.20
2019-04-21T04:52:24.104Z,76.20
2019-04-21T04:54:49.116Z,76.40
2019-04-21T04:57:14.493Z,76.00
2019-04-21T04:59:43.055Z,75.90
2019-04-21T05:02:30.427Z,75.90
2019-04-21T05:04:46.234Z,76.70
2019-04-21T05:09:42.774Z,77.30
2019-04-21T05:12:01.686Z,76.70
2019-04-21T05:14:39.531Z,74.60
2019-04-21T05:17:14.268Z,73.90
2019-04-21T05:19:42.564Z,72.70
2019-04-21T05:22:17.200Z,72.70
2019-04-21T05:24:31.789Z,72.50
2019-04-21T05:27:00.758Z,72.00
2019-04-21T05:29:38.802Z,72.50
2019-04-21T05:32:21.939Z,71.70
2019-04-21T05:34:41.237Z,71.30
2019-04-21T05:37:23.250Z,70.30
2019-04-21T05:39:50.831Z,70.70
2019-04-21T05:42:15.343Z,70.60
2019-04-21T05:45:04.284Z,70.10
2019-04-21T05:47:33.271Z,70.30
2019-04-21T05:50:03.184Z,68.40
2019-04-21T05:52:27.529Z,68.40
2019-04-21T05:55:00.950Z,68.00
2019-04-21T05:57:36.004Z,68.60
2019-04-21T05:59:59.450Z,67.10
2019-04-21T06:02:36.916Z,67.00
2019-04-21T06:07:34.864Z,66.70
2019-04-21T06:10:06.537Z,66.70
2019-04-21T06:12:43.095Z,66.30
2019-04-21T06:15:07.992Z,65.50
2019-04-21T06:17:44.630Z,65.00
2019-04-21T06:20:12.345Z,63.60
2019-04-21T06:22:39.710Z,60.80
2019-04-21T06:27:57.475Z,59.00
2019-04-21T06:30:11.827Z,57.10
2019-04-21T06:32:52.626Z,56.60
2019-04-21T06:35:42.898Z,55.30
2019-04-21T06:38:04.674Z,56.10
2019-04-21T06:40:38.969Z,55.80
2019-04-21T06:43:11.330Z,56.90
2019-04-21T06:45:37.737Z,56.60
2019-04-21T06:48:05.474Z,57.40
2019-04-21T06:50:39.879Z,57.60
2019-04-21T06:53:06.105Z,57.70
2019-04-21T06:55:32.085Z,55.90
2019-04-21T06:58:06.651Z,57.60
2019-04-21T07:00:38.843Z,58.10
2019-04-21T07:03:15.554Z,57.70
2019-04-21T07:05:41.300Z,57.90
2019-04-21T07:08:23.324Z,58.70
2019-04-21T07:10:37.458Z,54.70
2019-04-21T07:13:09.321Z,56.30
2019-04-21T07:15:43.656Z,55.00
2019-04-21T07:18:12.577Z,52.00
2019-04-21T07:20:51.837Z,51.50
2019-04-21T07:23:16.254Z,50.60
2019-04-21T07:25:48.302Z,50.60
2019-04-21T07:28:19.037Z,51.00
2019-04-21T07:30:57.575Z,50.80
2019-04-21T07:33:41.233Z,51.20
2019-04-21T07:35:54.070Z,49.50
2019-04-21T07:38:19.580Z,49.30
2019-04-21T07:40:42.635Z,49.30
2019-04-21T07:43:12.191Z,48.40
2019-04-21T07:45:45.930Z,48.30
2019-04-21T07:48:24.932Z,47.20
2019-04-21T07:51:04.417Z,46.90
2019-04-21T07:53:40.647Z,46.40
2019-04-21T07:55:50.982Z,46.60
2019-04-21T07:58:50.187Z,49.60
2019-04-21T08:01:12.223Z,48.20
2019-04-21T08:03:42.028Z,46.70
2019-04-21T08:06:18.734Z,46.40
2019-04-21T08:08:34.306Z,45.40
2019-04-21T08:11:09.122Z,44.80
2019-04-21T08:16:12.792Z,46.10
2019-04-21T08:18:39.976Z,45.60
2019-04-21T08:21:15.451Z,44.90
2019-04-21T08:23:41.480Z,44.60
2019-04-21T08:26:09.247Z,44.00
2019-04-21T08:28:49.357Z,44.40
2019-04-21T08:31:14.683Z,43.30
2019-04-21T08:33:51.436Z,42.60
2019-04-21T08:36:25.449Z,43.80
2019-04-21T08:38:51.549Z,42.20
2019-04-21T08:41:12.258Z,41.50
2019-04-21T08:43:45.639Z,42.20
2019-04-21T08:46:22.197Z,40.20
2019-04-21T08:48:49.465Z,40.60
2019-04-21T08:56:36.852Z,39.30
2019-04-21T08:59:37.632Z,38.30
2019-04-21T09:01:47.433Z,38.10
2019-04-21T09:04:26.149Z,38.30
2019-04-21T09:09:25.871Z,36.20
2019-04-21T09:11:54.287Z,38.60
2019-04-21T09:14:24.192Z,34.60
2019-04-21T09:16:52.837Z,34.90
2019-04-21T09:19:35.278Z,34.10
2019-04-21T09:21:54.934Z,36.70
2019-04-21T09:24:42.922Z,35.60
2019-04-21T09:26:55.672Z,35.40
2019-04-21T09:29:19.488Z,34.70
2019-04-21T09:31:41.827Z,36.00
2019-04-21T09:34:10.103Z,33.00
2019-04-21T09:36:44.670Z,33.50
2019-04-21T09:39:16.565Z,33.10
2019-04-21T09:41:42.770Z,33.80
2019-04-21T09:44:19.995Z,34.00
2019-04-21T09:46:49.774Z,33.80
2019-04-21T09:49:18.667Z,30.90
2019-04-21T09:51:43.769Z,31.30
2019-04-21T09:54:20.485Z,34.20
2019-04-21T09:56:52.366Z,32.50
2019-04-21T09:59:23.042Z,33.30
2019-04-21T10:01:57.493Z,32.40
2019-04-21T10:04:14.498Z,31.60
2019-04-21T10:06:43.321Z,30.30
2019-04-21T10:09:14.929Z,30.40
2019-04-21T10:11:43.834Z,31.60
2019-04-21T10:14:13.521Z,31.10
2019-04-21T10:16:51.589Z,32.20
2019-04-21T10:19:21.104Z,29.80
2019-04-21T10:21:50.186Z,29.50
2019-04-21T10:24:20.119Z,30.40
2019-04-21T10:26:49.397Z,29.70
2019-04-21T10:29:24.505Z,29.80
2019-04-21T10:31:48.733Z,30.90
2019-04-21T10:34:17.541Z,32.20
2019-04-21T10:36:47.045Z,28.80
2019-04-21T10:39:15.919Z,27.80
2019-04-21T10:41:45.807Z,30.00
2019-04-21T10:44:14.643Z,29.80
2019-04-21T10:46:46.687Z,28.80
2019-04-21T10:49:14.803Z,28.20
2019-04-21T10:51:43.766Z,28.90
2019-04-21T10:54:13.644Z,28.10
2019-04-21T10:56:44.479Z,27.00
2019-04-21T10:59:14.222Z,27.70
2019-04-21T11:01:43.332Z,28.50
2019-04-21T11:04:20.074Z,28.10
2019-04-21T11:06:44.296Z,26.60
2019-04-21T11:09:13.891Z,27.50
2019-04-21T11:11:44.988Z,27.70
2019-04-21T11:14:13.608Z,27.10
2019-04-21T11:16:43.320Z,27.10
2019-04-21T11:19:13.740Z,28.00
2019-04-21T11:21:42.920Z,28.80
2019-04-21T11:24:12.279Z,29.80
2019-04-21T11:26:42.206Z,29.50
2019-04-21T11:29:11.169Z,27.70
2019-04-21T11:31:41.029Z,29.20
2019-04-21T11:34:11.222Z,28.00
2019-04-21T11:36:40.417Z,27.70
2019-04-21T11:39:21.990Z,28.40
2019-04-21T11:41:41.675Z,28.50
2019-04-21T11:44:12.023Z,28.50
2019-04-21T11:46:42.487Z,28.20
2019-04-21T11:49:12.578Z,28.50
2019-04-21T11:51:42.701Z,28.40
2019-04-21T11:54:12.914Z,29.20
2019-04-21T11:56:43.102Z,28.70
2019-04-21T11:59:12.203Z,27.80
2019-04-21T12:01:41.483Z,28.20
2019-04-21T12:04:11.646Z,28.70
2019-04-21T12:06:44.501Z,29.80
2019-04-21T12:09:11.768Z,27.90
2019-04-21T12:11:41.115Z,28.10
2019-04-21T12:14:10.135Z,28.00
2019-04-21T12:16:39.212Z,29.20
2019-04-21T12:19:09.195Z,29.30
2019-04-21T12:21:49.155Z,29.20
2019-04-21T12:24:09.203Z,28.80
2019-04-21T12:26:40.070Z,30.90
2019-04-21T12:29:10.058Z,27.80
2019-04-21T12:31:41.412Z,29.10
2019-04-21T12:34:12.105Z,29.10
2019-04-21T12:36:42.091Z,28.50
2019-04-21T12:39:12.806Z,30.20
2019-04-21T12:41:42.625Z,28.50
2019-04-21T12:44:12.810Z,28.30
2019-04-21T12:46:41.661Z,28.40
2019-04-21T12:49:11.732Z,29.50
2019-04-21T12:51:41.848Z,29.30
2019-04-21T12:54:11.992Z,29.50
2019-04-21T12:56:41.232Z,29.90
2019-04-21T12:59:10.348Z,30.00
2019-04-21T13:01:39.231Z,28.30
2019-04-21T13:04:08.203Z,28.20
2019-04-21T13:06:37.341Z,29.30
2019-04-21T13:09:10.503Z,27.40
2019-04-21T13:11:37.765Z,29.30
2019-04-21T13:14:06.590Z,29.30
2019-04-21T13:16:35.509Z,29.20
2019-04-21T13:19:05.052Z,30.00
2019-04-21T13:21:34.245Z,30.20
2019-04-21T13:24:03.211Z,28.90
2019-04-21T13:26:39.437Z,28.20
2019-04-21T13:29:02.675Z,27.20
2019-04-21T13:31:32.040Z,27.80
2019-04-21T13:34:02.146Z,28.10
2019-04-21T13:36:31.789Z,27.00
2019-04-21T13:39:45.822Z,25.40
2019-04-21T13:41:57.043Z,27.50
2019-04-21T13:44:17.700Z,26.60
2019-04-21T13:46:47.334Z,26.00
2019-04-21T13:49:17.220Z,25.00
2019-04-21T13:51:47.843Z,25.80
2019-04-21T13:54:17.994Z,25.40
2019-04-21T13:56:47.010Z,26.30
2019-04-21T13:59:16.054Z,28.60
2019-04-21T14:01:45.688Z,27.40
2019-04-21T14:04:15.907Z,27.60
2019-04-21T14:06:44.806Z,26.60
2019-04-21T14:09:13.909Z,26.60
2019-04-21T14:11:43.473Z,26.70
2019-04-21T14:14:12.612Z,24.70
2019-04-21T14:16:42.327Z,24.60
2019-04-21T14:19:11.283Z,26.00
2019-04-21T14:21:41.175Z,26.80
2019-04-21T14:24:10.870Z,26.00
2019-04-21T14:26:40.412Z,26.60
2019-04-21T14:29:11.091Z,24.60
2019-04-21T14:31:40.243Z,26.90
2019-04-21T14:34:10.065Z,25.40
2019-04-21T14:36:39.092Z,25.60
2019-04-21T14:39:10.513Z,24.90
2019-04-21T14:41:40.298Z,25.50
2019-04-21T14:44:09.295Z,25.90
2019-04-21T14:46:39.737Z,25.20
2019-04-21T14:49:13.147Z,26.50
2019-04-21T14:51:47.463Z,25.60
2019-04-21T14:54:30.977Z,25.80
2019-04-21T14:57:00.908Z,25.20
2019-04-21T14:59:31.015Z,25.30
2019-04-21T15:02:00.038Z,26.40
2019-04-21T15:04:28.909Z,27.50
2019-04-21T15:06:59.196Z,27.20
2019-04-21T15:09:29.258Z,24.50
2019-04-21T15:11:58.390Z,26.90
2019-04-21T15:14:27.251Z,27.00
2019-04-21T15:16:56.851Z,25.70
2019-04-21T15:19:26.623Z,28.10
2019-04-21T15:21:56.701Z,25.30
2019-04-21T15:24:26.652Z,25.50
2019-04-21T15:26:56.923Z,26.10
2019-04-21T15:29:26.776Z,25.10
2019-04-21T15:31:56.796Z,26.10
2019-04-21T15:34:27.252Z,26.00
2019-04-21T15:36:57.844Z,28.00
2019-04-21T15:39:27.888Z,26.00
2019-04-21T15:41:58.464Z,25.20
2019-04-21T15:44:27.713Z,27.90
2019-04-21T15:46:57.652Z,26.60
2019-04-21T15:49:39.109Z,27.50
2019-04-21T15:52:00.067Z,28.00
2019-04-21T15:54:29.072Z,28.00
2019-04-21T15:57:00.697Z,26.40
2019-04-21T15:59:34.677Z,26.40
2019-04-21T16:02:22.346Z,26.10
2019-04-21T16:04:52.649Z,27.40
2019-04-21T16:07:22.333Z,28.50
2019-04-21T16:09:52.376Z,28.50
2019-04-21T16:12:22.080Z,27.90
2019-04-21T16:14:52.404Z,28.50
2019-04-21T16:17:21.421Z,29.30
2019-04-21T16:19:50.247Z,28.20
2019-04-21T16:22:19.113Z,26.90
2019-04-21T16:24:47.935Z,27.50
2019-04-21T16:27:17.422Z,25.90
2019-04-21T16:29:47.841Z,24.90
2019-04-21T16:32:19.369Z,25.30
2019-04-21T16:34:54.267Z,25.80
2019-04-21T16:37:17.697Z,26.90
2019-04-21T16:39:47.430Z,28.30
2019-04-21T16:42:16.297Z,28.10
2019-04-21T16:44:45.114Z,29.20
2019-04-21T16:47:13.990Z,30.00
2019-04-21T16:49:43.621Z,30.00
2019-04-21T16:52:20.466Z,29.90
2019-04-21T16:54:58.208Z,28.50
2019-04-21T16:57:35.677Z,28.60
2019-04-21T17:00:08.743Z,28.10
2019-04-21T17:02:38.597Z,27.90
2019-04-21T17:05:07.752Z,29.40
2019-04-21T17:07:36.788Z,30.00
2019-04-21T17:10:06.517Z,31.60
2019-04-21T17:12:35.639Z,31.20
2019-04-21T17:15:21.067Z,30.70
2019-04-21T17:18:00.390Z,31.60
2019-04-21T17:20:19.343Z,31.20
2019-04-21T17:22:39.618Z,30.80
2019-04-21T17:25:10.573Z,31.20
2019-04-21T17:27:40.689Z,31.80
2019-04-21T17:30:12.641Z,32.40
2019-04-21T17:32:47.016Z,33.70
2019-04-21T17:35:12.432Z,33.90
2019-04-21T17:37:42.962Z,34.70
2019-04-21T17:40:13.425Z,35.40
2019-04-21T17:42:49.285Z,36.50
2019-04-21T17:45:13.273Z,36.50
2019-04-21T17:47:49.789Z,36.90
2019-04-21T17:50:21.696Z,37.20
2019-04-21T17:52:59.311Z,37.50
2019-04-21T17:55:29.803Z,38.60
2019-04-21T17:58:11.693Z,39.20
2019-04-21T18:01:09.263Z,40.20
2019-04-21T18:03:27.289Z,40.10
2019-04-21T18:05:47.475Z,40.70
2019-04-21T18:08:23.203Z,41.10
2019-04-21T18:10:45.514Z,41.90
2019-04-21T18:13:11.546Z,42.00
2019-04-21T18:15:51.552Z,42.70
2019-04-21T18:18:06.204Z,43.20
2019-04-21T18:20:43.972Z,43.60
2019-04-21T18:23:31.424Z,42.60
2019-04-21T18:25:57.877Z,43.50
2019-04-21T18:28:20.862Z,43.60
2019-04-21T18:30:58.341Z,43.70
2019-04-21T18:33:33.436Z,43.30
2019-04-21T18:36:05.092Z,42.80
2019-04-21T18:38:57.456Z,43.10
2019-04-21T18:41:08.035Z,43.40
2019-04-21T18:44:08.997Z,43.20
2019-04-21T18:46:52.596Z,45.20
2019-04-21T18:49:05.097Z,45.10
2019-04-21T18:52:01.290Z,45.40
2019-04-21T18:54:37.734Z,46.70
2019-04-21T18:57:06.822Z,47.50
2019-04-21T18:59:29.799Z,48.60
2019-04-21T19:01:59.715Z,48.60
2019-04-21T19:04:26.487Z,48.10
2019-04-21T19:07:07.883Z,49.00
2019-04-21T19:10:01.771Z,48.10
2019-04-21T19:12:16.798Z,48.60
2019-04-21T19:14:38.742Z,49.00
2019-04-21T19:17:42.661Z,48.50
2019-04-21T19:19:56.409Z,48.40
2019-04-21T19:22:15.716Z,49.50
2019-04-21T19:24:48.691Z,48.80
2019-04-21T19:27:19.251Z,48.80
2019-04-21T19:29:57.255Z,49.10
2019-04-21T19:32:19.911Z,49.80
2019-04-21T19:34:34.800Z,50.20
2019-04-21T19:37:08.927Z,50.40
2019-04-21T19:39:43.175Z,50.60
2019-04-21T19:42:14.452Z,51.30
2019-04-21T19:44:52.170Z,51.50
2019-04-21T19:47:25.808Z,51.40
2019-04-21T19:49:55.053Z,51.90
2019-04-21T19:52:11.338Z,51.90
2019-04-21T19:54:39.766Z,51.60
2019-04-21T19:57:06.969Z,52.10
2019-04-21T19:59:42.294Z,52.40
2019-04-21T20:02:06.920Z,53.10
2019-04-21T20:04:42.778Z,53.00
2019-04-21T20:07:23.270Z,53.20
2019-04-21T20:09:55.797Z,53.70
2019-04-21T20:12:33.257Z,54.20
2019-04-21T20:14:59.591Z,54.10
2019-04-21T20:17:17.658Z,53.70
2019-04-21T20:19:38.638Z,54.10
2019-04-21T20:22:07.402Z,54.20
2019-04-21T20:24:39.251Z,54.30
2019-04-21T20:27:15.046Z,54.40
2019-04-21T20:29:57.968Z,54.90
2019-04-21T20:32:35.195Z,55.10
2019-04-21T20:35:00.933Z,55.40
2019-04-21T20:37:26.489Z,56.00
2019-04-21T20:39:47.066Z,55.30
2019-04-21T20:42:21.127Z,55.70
2019-04-21T20:45:16.053Z,55.90
2019-04-21T20:47:22.768Z,55.90
2019-04-21T20:49:57.073Z,56.00
2019-04-21T20:52:35.357Z,55.80
2019-04-21T20:54:56.481Z,55.90
2019-04-21T20:57:26.318Z,56.00
2019-04-21T21:00:04.638Z,55.70
2019-04-21T21:02:28.458Z,55.60
2019-04-21T21:04:52.799Z,55.60
2019-04-21T21:07:40.427Z,54.90
2019-04-21T21:10:07.370Z,54.60
2019-04-21T21:12:46.756Z,54.50
2019-04-21T21:14:57.795Z,54.90
2019-04-21T21:17:45.450Z,55.10
2019-04-21T21:20:07.856Z,54.80
2019-04-21T21:22:35.222Z,55.00
2019-04-21T21:25:05.268Z,55.10
2019-04-21T21:27:31.917Z,55.40
2019-04-21T21:30:05.709Z,54.90
2019-04-21T21:32:37.050Z,54.70
2019-04-21T21:35:08.282Z,55.20
2019-04-21T21:37:43.965Z,55.30
2019-04-21T21:40:11.184Z,54.80
2019-04-21T21:42:27.546Z,54.70
2019-04-21T21:45:00.153Z,54.60
2019-04-21T21:47:39.447Z,54.20
2019-04-21T21:50:04.736Z,54.30
2019-04-21T21:52:42.437Z,54.40
2019-04-21T21:54:55.794Z,54.40
2019-04-21T21:57:26.076Z,54.10
2019-04-21T22:00:02.536Z,54.00
2019-04-21T22:02:34.955Z,53.90
2019-04-21T22:05:06.684Z,54.30
2019-04-21T22:07:29.866Z,54.20
2019-04-21T22:09:58.043Z,53.90
2019-04-21T22:12:34.335Z,53.80
2019-04-21T22:14:57.594Z,54.20
2019-04-21T22:17:38.941Z,54.70
2019-04-21T22:20:13.527Z,54.90
2019-04-21T22:22:39.038Z,55.40
2019-04-21T22:25:09.073Z,55.50
2019-04-21T22:27:28.802Z,55.30
2019-04-21T22:30:02.890Z,55.50
2019-04-21T22:32:30.648Z,55.60
2019-04-21T22:35:04.800Z,56.10
2019-04-21T22:37:41.639Z,55.90
2019-04-21T22:40:12.668Z,56.30
2019-04-21T22:42:34.749Z,57.00
2019-04-21T22:45:01.468Z,56.80
2019-04-21T22:47:34.212Z,57.10
2019-04-21T22:50:02.510Z,57.60
2019-04-21T22:52:32.338Z,57.20
2019-04-21T22:55:08.248Z,57.60
2019-04-21T22:57:39.857Z,57.70
2019-04-21T23:00:07.096Z,58.70
2019-04-21T23:02:35.755Z,58.00
2019-04-21T23:05:06.467Z,58.00
2019-04-21T23:07:41.457Z,58.50
2019-04-21T23:10:07.581Z,59.00
2019-04-21T23:12:39.895Z,59.30
2019-04-21T23:15:13.233Z,59.60
2019-04-21T23:18:00.544Z,60.90
2019-04-21T23:20:34.462Z,60.00
2019-04-21T23:23:07.811Z,60.00
2019-04-21T23:25:27.882Z,59.70
2019-04-21T23:27:59.064Z,60.40
2019-04-21T23:30:38.609Z,60.20
2019-04-21T23:32:51.384Z,60.30
2019-04-21T23:35:22.727Z,61.10
2019-04-21T23:37:50.967Z,60.60
2019-04-21T23:40:19.893Z,61.60
2019-04-21T23:42:47.143Z,61.60
2019-04-21T23:45:18.390Z,61.60
2019-04-21T23:47:57.840Z,62.00
2019-04-21T23:50:30.217Z,62.50
2019-04-21T23:52:49.683Z,62.20
2019-04-21T23:55:19.009Z,62.70
2019-04-21T23:57:50.065Z,62.40
